createdAt,value
2022-08-26T00:00:06.820Z,24.6
2022-08-26T00:05:06.839Z,24.7
2022-08-26T00:10:06.859Z,24.7
2022-08-26T00:15:13.615Z,24
2022-08-26T00:20:13.613Z,23.8
2022-08-26T00:25:13.616Z,23.6
2022-08-26T00:30:14.016Z,23.7
2022-08-26T00:36:06.837Z,23.9
2022-08-26T00:41:13.686Z,23.8
2022-08-26T00:47:06.878Z,23.9
2022-08-26T00:52:06.843Z,23.8
2022-08-26T00:57:16.210Z,23.7
2022-08-26T01:03:11.448Z,23.6
2022-08-26T01:08:13.889Z,23.6
2022-08-26T01:14:06.868Z,23.6
2022-08-26T01:19:13.743Z,23.5
2022-08-26T01:25:06.862Z,23.4
2022-08-26T01:30:06.868Z,23.4
2022-08-26T01:35:06.869Z,23.3
2022-08-26T01:40:13.734Z,23.2
2022-08-26T01:46:06.971Z,23.2
2022-08-26T01:51:06.958Z,23.2
2022-08-26T01:56:06.880Z,23.1
2022-08-26T02:01:13.811Z,23
2022-08-26T02:07:07.408Z,22.9
2022-08-26T02:12:13.760Z,23
2022-08-26T02:18:06.876Z,23
2022-08-26T02:23:13.944Z,22.9
2022-08-26T02:28:14.217Z,22.8
2022-08-26T02:34:06.919Z,22.9
2022-08-26T02:39:19.511Z,22.9
2022-08-26T02:44:13.726Z,22.9
2022-08-26T02:49:13.876Z,22.8
2022-08-26T02:54:14.509Z,22.7
2022-08-26T03:00:06.891Z,22.7
2022-08-26T03:05:14.012Z,22.7
2022-08-26T03:11:06.890Z,22.7
2022-08-26T03:16:06.945Z,22.7
2022-08-26T03:21:06.926Z,22.8
2022-08-26T03:26:13.898Z,22.9
2022-08-26T03:32:07.119Z,22.9
2022-08-26T03:37:06.929Z,23
2022-08-26T03:42:14.349Z,22.9
2022-08-26T03:48:06.915Z,23
2022-08-26T03:53:14.404Z,23.1
2022-08-26T03:59:07.619Z,23.1
2022-08-26T04:04:06.950Z,23
2022-08-26T04:09:13.697Z,23
2022-08-26T04:14:14.260Z,23
2022-08-26T04:20:06.921Z,23.1
2022-08-26T04:25:06.961Z,23
2022-08-26T04:30:07.990Z,23
2022-08-26T04:35:14.042Z,23.1
2022-08-26T04:41:14.770Z,23.2
2022-08-26T04:46:06.971Z,23.2
2022-08-26T04:51:06.932Z,23.1
2022-08-26T04:56:06.947Z,23.1
2022-08-26T05:01:13.738Z,23.1
2022-08-26T05:06:14.097Z,23.2
2022-08-26T05:12:06.925Z,23.2
2022-08-26T05:17:15.060Z,23.3
2022-08-26T05:23:07.086Z,23.4
2022-08-26T05:28:13.726Z,23.4
2022-08-26T05:33:13.982Z,23.4
2022-08-26T05:38:14.224Z,23.5
2022-08-26T05:44:06.949Z,23.5
2022-08-26T05:49:12.768Z,23.5
2022-08-26T05:54:14.377Z,23.6
2022-08-26T06:00:06.942Z,23.5
2022-08-26T06:05:07.663Z,23.6
2022-08-26T06:10:33.294Z,23.8
2022-08-26T06:15:07.006Z,23.6
2022-08-26T06:20:13.769Z,23.7
2022-08-26T06:25:14.454Z,23.8
2022-08-26T06:31:07.018Z,23.9
2022-08-26T06:36:14.270Z,24
2022-08-26T06:41:14.449Z,24
2022-08-26T06:47:06.954Z,24.1
2022-08-26T06:52:14.446Z,24.2
2022-08-26T06:58:06.970Z,24.3
2022-08-26T07:03:15.451Z,24.3
2022-08-26T07:09:07.000Z,24.4
2022-08-26T07:14:14.570Z,24.5
2022-08-26T07:20:07.005Z,24.6
2022-08-26T07:25:13.750Z,24.6
2022-08-26T07:30:14.741Z,24.7
2022-08-26T07:35:14.578Z,24.6
2022-08-26T07:41:06.973Z,24.6
2022-08-26T07:46:07.006Z,24.7
2022-08-26T07:51:14.073Z,24.8
2022-08-26T07:56:14.684Z,24.7
2022-08-26T08:02:06.972Z,24.9
2022-08-26T08:07:07.531Z,24.9
2022-08-26T08:12:14.169Z,25.1
2022-08-26T08:17:13.781Z,24.8
2022-08-26T08:22:17.232Z,24.8
2022-08-26T08:27:14.283Z,24.5
2022-08-26T08:33:06.992Z,24.6
2022-08-26T08:38:13.786Z,24.8
2022-08-26T08:43:13.790Z,25
2022-08-26T08:49:06.985Z,25
2022-08-26T08:54:06.989Z,25.2
2022-08-26T08:59:07.001Z,25.4
2022-08-26T09:04:07.012Z,25.5
2022-08-26T09:09:13.806Z,25.7
2022-08-26T09:14:14.367Z,25.6
2022-08-26T09:19:14.469Z,25.8
2022-08-26T09:25:07.039Z,25.8
2022-08-26T09:30:13.819Z,25.9
2022-08-26T09:36:07.008Z,25.9
2022-08-26T09:41:14.011Z,25.9
2022-08-26T09:46:14.392Z,26.1
2022-08-26T09:52:07.030Z,25.8
2022-08-26T09:57:14.567Z,26.1
2022-08-26T10:03:07.030Z,26.2
2022-08-26T10:08:13.838Z,25.8
2022-08-26T10:14:07.030Z,26.2
2022-08-26T10:19:07.034Z,26.3
2022-08-26T10:24:07.049Z,26.4
2022-08-26T10:29:14.436Z,26.4
2022-08-26T10:35:07.046Z,26.5
2022-08-26T10:40:13.863Z,26.3
2022-08-26T10:45:15.315Z,26.4
2022-08-26T10:50:13.925Z,26.4
2022-08-26T10:56:18.832Z,26.5
2022-08-26T11:01:10.267Z,26.3
2022-08-26T11:06:07.072Z,26.3
2022-08-26T11:11:14.475Z,26.2
2022-08-26T11:17:07.046Z,26.4
2022-08-26T11:22:13.905Z,26.3
2022-08-26T11:27:14.041Z,26.5
2022-08-26T11:33:07.175Z,26.8
2022-08-26T11:38:14.605Z,26.6
2022-08-26T11:44:07.057Z,27
2022-08-26T11:49:07.062Z,26.6
2022-08-26T11:54:14.567Z,27.1
2022-08-26T12:00:08.431Z,27.1
2022-08-26T12:05:14.465Z,27.5
2022-08-26T12:11:07.077Z,27.7
2022-08-26T12:16:13.915Z,27.5
2022-08-26T12:21:13.873Z,27.5
2022-08-26T12:26:14.143Z,27.4
2022-08-26T12:31:14.457Z,27.4
2022-08-26T12:37:07.248Z,27.5
2022-08-26T12:42:07.116Z,27.2
2022-08-26T12:47:14.429Z,27.7
2022-08-26T12:53:07.106Z,28
2022-08-26T12:58:07.319Z,27.7
2022-08-26T13:03:14.714Z,27.4
2022-08-26T13:09:07.085Z,27.5
2022-08-26T13:14:07.473Z,28.1
2022-08-26T13:19:10.609Z,28
2022-08-26T13:24:14.217Z,28.1
2022-08-26T13:30:07.103Z,28.1
2022-08-26T13:35:07.145Z,27.8
2022-08-26T13:40:14.110Z,27.9
2022-08-26T13:46:07.094Z,28.3
2022-08-26T13:51:08.911Z,28.2
2022-08-26T13:56:14.743Z,28.2
2022-08-26T14:02:07.094Z,27.9
2022-08-26T14:07:07.117Z,27.8
2022-08-26T14:12:13.895Z,27.5
2022-08-26T14:17:14.055Z,27.4
2022-08-26T14:22:14.398Z,27.1
2022-08-26T14:27:14.478Z,27.4
2022-08-26T14:33:07.102Z,27.1
2022-08-26T14:38:07.105Z,27.2
2022-08-26T14:43:13.880Z,27.3
2022-08-26T14:48:13.906Z,27.2
2022-08-26T14:53:14.485Z,27.6
2022-08-26T14:59:07.106Z,27.4
2022-08-26T15:04:07.143Z,27.1
2022-08-26T15:09:13.900Z,27
2022-08-26T15:15:07.129Z,26.6
2022-08-26T15:20:07.120Z,26.3
2022-08-26T15:25:13.914Z,26.4
2022-08-26T15:30:14.394Z,26.7
2022-08-26T15:36:07.150Z,26.4
2022-08-26T15:41:14.131Z,26.8
2022-08-26T15:46:14.563Z,26.5
2022-08-26T15:52:07.161Z,26.8
2022-08-26T15:57:16.420Z,26.3
2022-08-26T16:03:07.156Z,26.1
2022-08-26T16:08:13.982Z,26.2
2022-08-26T16:13:14.994Z,26.2
2022-08-26T16:19:07.739Z,26.4
2022-08-26T16:24:13.930Z,26.5
2022-08-26T16:29:14.460Z,26.5
2022-08-26T16:35:07.158Z,26
2022-08-26T16:40:07.240Z,26.2
2022-08-26T16:45:07.162Z,26.4
2022-08-26T16:50:07.248Z,25.9
2022-08-26T16:55:13.942Z,25.8
2022-08-26T17:00:14.279Z,26
2022-08-26T17:05:14.410Z,26
2022-08-26T17:11:07.155Z,25.7
2022-08-26T17:16:07.238Z,25.8
2022-08-26T17:21:07.202Z,25.4
2022-08-26T17:26:14.037Z,25.1
2022-08-26T17:31:14.068Z,24.8
2022-08-26T17:36:14.023Z,25.2
2022-08-26T17:41:14.190Z,25.3
2022-08-26T17:47:07.206Z,25.1
2022-08-26T17:52:11.358Z,25.2
2022-08-26T17:57:14.371Z,25.3
2022-08-26T18:02:14.335Z,24.7
2022-08-26T18:08:07.205Z,24.6
2022-08-26T18:13:13.975Z,24.7
2022-08-26T18:19:07.197Z,24.5
2022-08-26T18:24:14.661Z,24.4
2022-08-26T18:30:07.205Z,24.2
2022-08-26T18:35:13.973Z,24.3
2022-08-26T18:40:14.018Z,24.4
2022-08-26T18:45:16.415Z,24.2
2022-08-26T18:51:07.222Z,24
2022-08-26T18:56:07.217Z,24.1
2022-08-26T19:01:14.926Z,24.1
2022-08-26T19:07:07.250Z,23.8
2022-08-26T19:12:13.976Z,24.1
2022-08-26T19:17:14.283Z,23.9
2022-08-26T19:22:14.511Z,23.6
2022-08-26T19:28:07.216Z,23.4
2022-08-26T19:33:07.253Z,23.5
2022-08-26T19:38:07.248Z,23.4
2022-08-26T19:43:14.008Z,23.3
2022-08-26T19:48:14.315Z,23.5
2022-08-26T19:54:07.211Z,23.3
2022-08-26T19:59:07.217Z,23.4
2022-08-26T20:04:07.236Z,23.6
2022-08-26T20:09:14.012Z,23.4
2022-08-26T20:14:14.316Z,23.6
2022-08-26T20:20:07.210Z,23.5
2022-08-26T20:25:07.244Z,23.6
2022-08-26T20:30:07.246Z,23.6
2022-08-26T20:35:07.254Z,23.8
2022-08-26T20:40:07.329Z,23.6
2022-08-26T20:45:14.050Z,23
2022-08-26T20:51:07.250Z,23.3
2022-08-26T20:56:14.049Z,23.4
2022-08-26T21:01:14.521Z,23.5
2022-08-26T21:07:07.255Z,23.2
2022-08-26T21:12:14.016Z,22.7
2022-08-26T21:17:14.405Z,22.7
2022-08-26T21:22:14.773Z,22.5
2022-08-26T21:28:07.239Z,22.4
2022-08-26T21:33:07.256Z,22.7
2022-08-26T21:38:14.556Z,22.6
2022-08-26T21:43:27.778Z,22.6
2022-08-26T21:49:07.246Z,22.8
2022-08-26T21:54:10.698Z,22.7
2022-08-26T21:59:14.105Z,22.6
2022-08-26T22:05:07.263Z,22.7
2022-08-26T22:10:07.270Z,22.4
2022-08-26T22:15:14.058Z,22.6
2022-08-26T22:20:16.478Z,22.4
2022-08-26T22:26:07.257Z,22.2
2022-08-26T22:31:07.293Z,22.3
2022-08-26T22:36:14.186Z,22.4
2022-08-26T22:41:14.172Z,22.3
2022-08-26T22:46:14.838Z,22
2022-08-26T22:52:07.304Z,22.2
2022-08-26T22:57:14.145Z,21.7
2022-08-26T23:03:07.315Z,21.4
2022-08-26T23:08:07.314Z,21.6
2022-08-26T23:13:07.287Z,21.7
2022-08-26T23:18:14.362Z,21.6
2022-08-26T23:23:14.827Z,21.9
2022-08-26T23:29:07.317Z,21.7
2022-08-26T23:34:14.058Z,21.7
2022-08-26T23:39:14.080Z,21.9
2022-08-26T23:45:07.494Z,22
2022-08-26T23:50:07.312Z,22
2022-08-26T23:55:14.109Z,22.2
